Main page
METAR-TAF:

METAR-TAF

Airports :

Julius Nyerere International Airport

Dar es Salaam, Tanzania

latitude: 06-52S, longitude: 039-12E, elevation: 55 m

Current weather observation

The report was made 58 minutes ago, at 06:00 UTC
Wind 10 kt from the South
Temperature 25°C
Humidity 79%
Pressure 1018 hPa
Visibility 10 km or more
Few clouds at a height of 1300 ft
Scattered clouds at a height of 8000 ft

METAR: HTDA 190600Z 19010KT 9999 FEW013 SCT080 25/21 Q1018 NOSIG

Time: 09:58 (06:58 UTC)

Forecast

The report was made 1 hour and 58 minutes ago, at 05:00 UTC
Forecast valid from 19 at 06 UTC to 20 at 12 UTC
Wind 5 kt from the South/Southwest
Visibility 10 km or more
Few clouds at a height of 1200 ft
Probability 40% :
Temporary
from 19 at 06 UTC to 19 at 10 UTC
Wind 10 kt from the South/Southeast
Broken clouds at a height of 1400 ft
rain
From 19 at 1518 UTC
Scattered clouds at a height of 2100 ft

TAF: HTDA 190500Z 1906/2012 21005KT 9999 FEW012 PROB40 TEMPO 1906/1910 15010KT RA BKN014 FM191518 SCT021

Weather observations and forecasts of more than 4000 airports (METAR and TAF reports).

The available stations are represented by yellow and red dots on the map.

Hover mouse over dot to see the name of the station.

Then click to see weather observations and forecasts.

To change the map : click on the green buttons with a black cross to zoom in, on the green button with a dash to zoom out, or on the green arrows for adjacent maps.


METAR-TAF: